Time;durP1;ratioP1;P1;durP2;ratioP2;P2;SDS_P1;SDS_P2;PMS_P1;PMS_P2;Temp;Humidity;BMP_temperature;BMP_pressure;BME280_temperature;BME280_humidity;BME280_pressure;Samples;Min_cycle;Max_cycle;Signal;HPM_P1;HPM_P2
2023/05/06 00:02:19;;;;;;;11.13;8.37;;;;;;;-141.97;61.63;47697.84;5034521;28;20158;-80
2023/05/06 00:04:44;;;;;;;12.87;8.00;;;;;;;-141.97;61.69;47734.34;5032954;28;20172;-80
2023/05/06 00:07:10;;;;;;;12.33;8.60;;;;;;;-141.97;62.03;47672.84;5032679;28;20208;-80
2023/05/06 00:09:35;;;;;;;11.80;8.50;;;;;;;-141.97;63.79;47718.97;5032078;28;20618;-80
2023/05/06 00:12:01;;;;;;;13.53;8.90;;;;;;;-141.97;63.99;47680.53;5032359;28;20194;-81
2023/05/06 00:14:26;;;;;;;12.97;8.60;;;;;;;-141.97;64.75;47711.28;5033010;28;20187;-82
2023/05/06 00:16:52;;;;;;;14.13;8.30;;;;;;;-141.97;65.06;47726.66;5031574;28;20249;-81
2023/05/06 00:19:17;;;;;;;12.53;8.43;;;;;;;-141.97;65.31;47711.28;5032074;28;20162;-82
2023/05/06 00:21:43;;;;;;;14.00;8.57;;;;;;;-141.97;66.33;47717.06;5015925;28;20653;-80
2023/05/06 00:24:08;;;;;;;11.17;8.20;;;;;;;-141.97;65.99;47688.22;5035049;28;20594;-81
2023/05/06 00:26:34;;;;;;;13.20;8.33;;;;;;;-141.97;66.74;47734.34;5014991;28;20304;-81
2023/05/06 00:28:59;;;;;;;12.03;7.93;;;;;;;-141.97;66.93;47688.22;5032562;28;20237;-81
2023/05/06 00:31:24;;;;;;;14.73;9.60;;;;;;;-141.97;68.33;47722.81;5032436;28;20166;-81
2023/05/06 00:33:50;;;;;;;15.97;10.93;;;;;;;-141.97;68.63;47842.00;5035113;28;20162;-80
2023/05/06 00:36:15;;;;;;;20.93;11.80;;;;;;;-141.97;69.14;47617.09;5035420;28;20173;-81
2023/05/06 00:38:41;;;;;;;14.43;9.90;;;;;;;-141.97;69.56;47749.72;5035770;28;20217;-81
2023/05/06 00:41:07;;;;;;;14.03;8.83;;;;;;;-141.97;69.58;47688.22;5036179;28;20196;-81
2023/05/06 00:43:32;;;;;;;13.00;8.63;;;;;;;-141.97;69.86;47665.16;5036021;28;20245;-81
2023/05/06 00:45:57;;;;;;;14.50;9.27;;;;;;;-141.97;70.34;47730.50;5035872;28;20162;-81
2023/05/06 00:48:23;;;;;;;14.70;8.33;;;;;;;-141.97;70.62;47736.28;5035927;28;20174;-80
2023/05/06 00:50:48;;;;;;;12.73;8.23;;;;;;;-141.97;70.58;47684.38;5035761;28;20161;-81
2023/05/06 00:53:14;;;;;;;12.13;8.50;;;;;;;-141.97;70.56;47707.44;5036031;28;20201;-81
2023/05/06 00:55:40;;;;;;;15.93;9.23;;;;;;;-141.97;70.77;47718.97;5035837;28;20166;-80
2023/05/06 00:58:05;;;;;;;12.90;8.80;;;;;;;-141.97;71.46;47694.00;5035616;28;20162;-81
2023/05/06 01:00:31;;;;;;;15.67;9.37;;;;;;;-141.97;72.61;47680.53;5035470;28;20169;-79
2023/05/06 01:02:56;;;;;;;16.03;9.33;;;;;;;-141.97;73.19;47718.97;5034995;28;20146;-81
2023/05/06 01:05:24;;;;;;;14.20;8.97;;;;;;;-141.97;73.91;47707.44;5035907;28;20166;-81
2023/05/06 01:08:14;;;;;;;13.07;8.43;;;;;;;-141.97;74.89;47726.66;5035836;28;20690;-81
2023/05/06 01:10:53;;;;;;;15.70;9.10;;;;;;;-141.97;75.49;47690.16;5035722;28;20166;-79
2023/05/06 01:13:28;;;;;;;15.00;9.20;;;;;;;-141.97;75.84;47699.75;5017330;28;20190;-81
2023/05/06 01:15:55;;;;;;;14.63;8.93;;;;;;;-141.97;75.90;47695.91;5035270;28;20169;-81
2023/05/06 01:18:24;;;;;;;14.07;9.07;;;;;;;-141.97;75.70;47711.28;5035670;28;20174;-80
2023/05/06 01:20:53;;;;;;;14.03;8.70;;;;;;;-141.97;75.99;47703.59;5034908;28;20166;-81
2023/05/06 01:23:19;;;;;;;14.43;9.03;;;;;;;-141.97;75.50;47740.13;5034469;28;20174;-81
2023/05/06 01:25:44;;;;;;;16.47;9.73;;;;;;;-141.97;75.42;47717.06;5034945;28;20174;-81
2023/05/06 01:28:11;;;;;;;14.60;9.40;;;;;;;-141.97;74.88;47753.56;5034984;28;20166;-80
2023/05/06 01:30:50;;;;;;;15.10;9.33;;;;;;;-141.97;75.47;47742.03;5034820;28;20166;-80
2023/05/06 01:33:37;;;;;;;15.30;9.53;;;;;;;-141.97;75.60;47705.53;5034921;28;20190;-80
2023/05/06 01:36:24;;;;;;;16.50;10.20;;;;;;;-141.97;75.85;47722.81;5034473;28;20174;-80
2023/05/06 01:39:14;;;;;;;16.50;10.00;;;;;;;-141.97;76.87;47718.97;5034913;28;20218;-81
2023/05/06 01:41:40;;;;;;;15.80;9.67;;;;;;;-141.97;77.67;47734.34;5041893;28;20268;-81
2023/05/06 01:44:07;;;;;;;18.50;10.40;;;;;;;-141.97;77.35;47742.03;5054217;28;20161;-81
2023/05/06 01:46:34;;;;;;;20.10;10.40;;;;;;;-141.97;76.63;47707.44;5054713;28;20160;-81
2023/05/06 01:49:03;;;;;;;19.83;10.60;;;;;;;-141.97;75.96;47718.97;5054696;28;20640;-80
2023/05/06 01:51:31;;;;;;;16.03;9.40;;;;;;;-141.97;76.05;47738.19;5054453;28;20166;-81
2023/05/06 01:53:57;;;;;;;16.43;9.80;;;;;;;-141.97;76.81;47776.63;5054912;28;20582;-79
2023/05/06 01:56:22;;;;;;;18.47;10.43;;;;;;;-141.97;77.19;47753.56;5053855;28;20174;-81
2023/05/06 01:58:48;;;;;;;16.97;10.40;;;;;;;-141.97;76.75;47732.44;5054285;28;20161;-81
2023/05/06 02:01:13;;;;;;;16.87;10.10;;;;;;;-141.97;75.92;47745.88;5054435;28;20638;-80
2023/05/06 02:03:38;;;;;;;19.40;10.67;;;;;;;-141.97;75.30;47749.72;5054354;28;20154;-80
2023/05/06 02:06:04;;;;;;;18.27;10.67;;;;;;;-141.97;74.90;47715.13;5054681;28;20244;-81
2023/05/06 02:08:29;;;;;;;16.67;10.20;;;;;;;-141.97;75.15;47720.91;5070156;28;20196;-78
2023/05/06 02:10:54;;;;;;;19.77;10.43;;;;;;;-141.97;75.65;47692.06;5074688;28;20196;-79
2023/05/06 02:13:20;;;;;;;19.53;10.80;;;;;;;-141.97;74.89;47711.28;5076039;28;20208;-81
2023/05/06 02:15:45;;;;;;;18.67;10.93;;;;;;;-141.97;74.47;47672.84;5065321;28;20201;-79
2023/05/06 02:18:11;;;;;;;19.13;11.60;;;;;;;-141.97;73.55;47713.22;5056706;28;20192;-79
2023/05/06 02:20:36;;;;;;;21.00;11.40;;;;;;;-141.97;73.68;47743.97;5037545;28;20207;-80
2023/05/06 02:23:01;;;;;;;21.70;12.00;;;;;;;-141.97;74.19;47642.09;5054986;28;20173;-81
2023/05/06 02:25:28;;;;;;;21.50;12.03;;;;;;;-141.97;74.80;47707.44;5054247;28;20223;-81
2023/05/06 02:27:53;;;;;;;24.30;13.03;;;;;;;-141.97;75.31;47732.44;5053986;28;20176;-80
2023/05/06 02:30:19;;;;;;;32.60;17.77;;;;;;;-141.97;74.45;47703.59;5054319;28;20165;-82
2023/05/06 02:32:44;;;;;;;39.17;19.43;;;;;;;-141.97;73.23;47745.88;5054100;28;20193;-81
2023/05/06 02:35:10;;;;;;;31.30;17.50;;;;;;;-141.97;73.07;47759.34;5053970;28;20161;-80
2023/05/06 02:37:35;;;;;;;35.27;18.83;;;;;;;-141.97;72.87;47672.84;5053797;28;20161;-80
2023/05/06 02:40:01;;;;;;;36.63;20.97;;;;;;;-141.97;72.22;47703.59;5054059;28;20221;-81
2023/05/06 02:42:26;;;;;;;56.90;29.97;;;;;;;-141.97;71.86;47688.22;5053315;28;20210;-80
2023/05/06 02:44:51;;;;;;;150.67;62.47;;;;;;;-141.97;71.64;47728.59;5041857;28;20761;-80
2023/05/06 02:47:17;;;;;;;65.63;30.67;;;;;;;-141.97;71.68;47724.75;5074308;28;20154;-81
2023/05/06 02:49:42;;;;;;;26.30;15.20;;;;;;;-141.97;72.75;47722.81;5063819;28;20176;-80
2023/05/06 02:52:08;;;;;;;21.67;12.03;;;;;;;-141.97;72.97;47711.28;5054111;28;20312;-81
2023/05/06 02:54:33;;;;;;;18.83;11.60;;;;;;;-141.97;73.48;47747.81;5053933;28;20182;-81
2023/05/06 02:56:58;;;;;;;22.17;12.27;;;;;;;-141.97;73.95;47686.31;5052837;28;20248;-81
2023/05/06 02:59:24;;;;;;;19.17;10.97;;;;;;;-141.97;74.43;47688.22;5053353;28;20607;-81
2023/05/06 03:01:49;;;;;;;19.80;11.17;;;;;;;-141.97;74.28;47726.66;5036080;28;20169;-81
2023/05/06 03:04:15;;;;;;;19.80;11.60;;;;;;;-141.97;74.71;47772.78;5053861;28;20189;-80
2023/05/06 03:06:40;;;;;;;21.93;11.60;;;;;;;-141.97;75.60;47740.13;5053480;28;20219;-80
2023/05/06 03:09:05;;;;;;;19.67;11.90;;;;;;;-141.97;75.60;47745.88;5053263;28;20513;-81
2023/05/06 03:11:31;;;;;;;21.20;11.97;;;;;;;-141.97;75.09;47718.97;5052720;28;20169;-81
2023/05/06 03:13:57;;;;;;;23.07;12.50;;;;;;;-141.97;74.75;47824.69;5052436;28;20174;-81
2023/05/06 03:16:23;;;;;;;23.17;12.37;;;;;;;-141.97;75.01;47738.19;5053531;28;20215;-81
2023/05/06 03:18:48;;;;;;;21.10;11.87;;;;;;;-141.97;74.23;47680.53;5059021;28;20173;-80
2023/05/06 03:21:13;;;;;;;20.83;12.20;;;;;;;-141.97;74.09;47697.84;5044000;28;20179;-80
2023/05/06 03:23:39;;;;;;;20.93;11.67;;;;;;;-141.97;73.91;47793.94;5054860;28;20165;-81
2023/05/06 03:26:04;;;;;;;26.17;13.27;;;;;;;-141.97;73.19;47749.72;5053527;28;20165;-82
2023/05/06 03:28:30;;;;;;;27.03;14.20;;;;;;;-141.97;72.67;47711.28;5052584;28;20253;-81
2023/05/06 03:30:55;;;;;;;28.33;17.43;;;;;;;-141.97;73.04;47768.94;5052944;28;20245;-81
2023/05/06 03:33:21;;;;;;;29.87;16.70;;;;;;;-141.97;73.04;47669.00;5035464;28;20212;-81
2023/05/06 03:35:46;;;;;;;25.37;14.97;;;;;;;-141.97;73.07;47734.34;5052622;28;20645;-80
2023/05/06 03:38:11;;;;;;;23.97;13.33;;;;;;;-141.97;73.09;47718.97;5052708;28;20225;-81
2023/05/06 03:40:37;;;;;;;19.07;11.90;;;;;;;-141.97;73.12;47732.44;5052279;28;20520;-82
2023/05/06 03:43:03;;;;;;;23.73;11.60;;;;;;;-141.97;74.67;47720.91;5052501;28;20164;-81
2023/05/06 03:45:28;;;;;;;18.97;11.30;;;;;;;-141.97;74.82;47740.13;5053341;28;20161;-81
2023/05/06 03:47:55;;;;;;;19.57;11.33;;;;;;;-141.97;74.98;47709.38;5052572;28;20201;-81
2023/05/06 03:50:21;;;;;;;18.60;11.40;;;;;;;-141.97;75.10;47717.06;5052553;28;20154;-82
2023/05/06 03:52:46;;;;;;;30.67;14.63;;;;;;;-141.97;74.37;47709.38;5052546;28;20621;-81
2023/05/06 03:55:12;;;;;;;18.37;11.43;;;;;;;-141.97;74.35;47726.66;5052441;28;20176;-81
2023/05/06 03:57:37;;;;;;;17.70;10.80;;;;;;;-141.97;73.94;47726.66;5052323;28;20606;-82
2023/05/06 04:00:03;;;;;;;16.60;10.50;;;;;;;-141.97;74.44;47657.47;5052196;28;20172;-82
2023/05/06 04:02:28;;;;;;;19.37;10.90;;;;;;;-141.97;74.68;47747.81;5052399;28;20158;-81
2023/05/06 04:04:54;;;;;;;19.80;11.50;;;;;;;-141.97;74.72;47734.34;5052569;28;20392;-80
2023/05/06 04:07:19;;;;;;;19.60;11.47;;;;;;;-141.97;74.39;47695.91;5051548;28;20548;-81
2023/05/06 04:09:44;;;;;;;18.03;11.30;;;;;;;-141.97;73.76;47838.16;5052062;28;20264;-81
2023/05/06 04:12:10;;;;;;;17.70;10.93;;;;;;;-141.97;74.02;47718.97;5052063;28;20658;-81
2023/05/06 04:14:35;;;;;;;17.80;11.30;;;;;;;-141.97;73.76;47761.25;5052414;28;20252;-81
2023/05/06 04:17:01;;;;;;;18.43;11.73;;;;;;;-141.97;74.21;47818.94;5034814;28;20177;-83
2023/05/06 04:19:26;;;;;;;16.33;11.13;;;;;;;-141.97;74.73;47709.38;5052397;28;20611;-82
2023/05/06 04:21:51;;;;;;;20.13;10.80;;;;;;;-141.97;75.37;47724.75;5053182;28;20172;-82
2023/05/06 04:24:17;;;;;;;18.17;10.33;;;;;;;-141.97;74.74;47732.44;5052863;28;20244;-83
2023/05/06 04:26:42;;;;;;;19.07;10.90;;;;;;;-141.97;74.38;47726.66;5052870;28;20157;-82
2023/05/06 04:29:08;;;;;;;18.90;10.33;;;;;;;-141.97;73.21;47730.50;5052577;28;20165;-82
2023/05/06 04:31:35;;;;;;;16.97;10.10;;;;;;;-141.97;72.77;47740.13;5052689;28;20544;-81
2023/05/06 04:34:01;;;;;;;17.00;9.30;;;;;;;-141.97;72.12;47665.16;5052139;28;20215;-82
2023/05/06 04:36:27;;;;;;;15.53;9.43;;;;;;;-141.97;71.22;47717.06;5052050;28;20165;-82
2023/05/06 04:38:52;;;;;;;14.93;8.77;;;;;;;-141.97;71.15;47705.53;5052436;28;20242;-82
2023/05/06 04:41:19;;;;;;;13.30;8.60;;;;;;;-141.97;70.64;47730.50;5052119;28;20250;-82
2023/05/06 04:43:45;;;;;;;14.57;8.77;;;;;;;-141.97;70.76;47722.81;5052767;28;20157;-83
2023/05/06 04:46:10;;;;;;;15.67;9.43;;;;;;;-141.97;70.41;47684.38;5052406;28;20161;-83
2023/05/06 04:48:36;;;;;;;17.23;9.97;;;;;;;-141.97;69.72;47699.75;5052477;28;20562;-82
2023/05/06 04:51:05;;;;;;;18.53;11.00;;;;;;;-141.97;68.62;47736.28;5052612;28;20161;-81
2023/05/06 04:53:31;;;;;;;14.57;9.50;;;;;;;-141.97;68.07;47684.38;5052465;28;20331;-81
2023/05/06 04:55:56;;;;;;;33.23;17.57;;;;;;;-141.97;67.38;47684.38;5052292;28;20221;-82
2023/05/06 04:58:21;;;;;;;32.40;17.70;;;;;;;-141.97;66.96;47832.38;5052356;28;20162;-81
2023/05/06 05:00:47;;;;;;;16.00;9.53;;;;;;;-141.97;67.02;47718.97;5051626;28;20264;-81
2023/05/06 05:03:12;;;;;;;13.10;8.20;;;;;;;-141.97;66.22;47893.91;5051135;28;20296;-84
2023/05/06 05:05:38;;;;;;;14.70;8.13;;;;;;;-141.97;65.66;47705.53;5034568;28;20276;-84
2023/05/06 05:08:04;;;;;;;13.07;7.93;;;;;;;-141.97;65.59;47692.06;5053014;28;20523;-83
2023/05/06 05:10:29;;;;;;;14.80;7.40;;;;;;;-141.97;65.50;47699.75;5034984;28;20170;-84
2023/05/06 05:12:54;;;;;;;16.80;9.27;;;;;;;-141.97;65.12;47667.06;5035117;28;20197;-84
2023/05/06 05:15:20;;;;;;;14.43;8.60;;;;;;;-141.97;64.76;47615.19;5052955;28;20178;-83
2023/05/06 05:17:46;;;;;;;14.93;8.27;;;;;;;-141.97;64.17;47820.84;5052637;28;20184;-83
2023/05/06 05:20:11;;;;;;;14.97;8.37;;;;;;;-141.97;63.71;47786.25;5056476;28;20199;-83
2023/05/06 05:22:37;;;;;;;13.80;8.17;;;;;;;-141.97;63.50;47678.63;5038655;28;20419;-83
2023/05/06 05:25:03;;;;;;;17.70;9.63;;;;;;;-141.97;63.06;47707.44;5055788;28;20165;-84
2023/05/06 05:27:28;;;;;;;17.60;9.83;;;;;;;-141.97;62.58;47684.38;5056351;28;20543;-83
2023/05/06 05:29:54;;;;;;;15.40;9.30;;;;;;;-141.97;60.71;47859.28;5055488;28;20161;-82
2023/05/06 05:32:20;;;;;;;11.70;7.07;;;;;;;-141.97;61.40;47674.78;5054533;28;20185;-83
2023/05/06 05:34:46;;;;;;;13.83;8.63;;;;;;;-141.97;61.63;47644.00;5054748;28;20191;-84
2023/05/06 05:37:11;;;;;;;13.27;7.93;;;;;;;-141.97;59.59;47811.25;5056038;28;20193;-82
2023/05/06 05:39:36;;;;;;;11.93;6.53;;;;;;;-141.97;58.94;47709.38;5059369;28;20221;-83
2023/05/06 05:42:02;;;;;;;12.40;7.63;;;;;;;-141.97;58.47;47546.00;5061071;28;20176;-84
2023/05/06 05:44:28;;;;;;;15.27;9.37;;;;;;;-141.97;57.38;47607.50;5057786;28;20165;-82
2023/05/06 05:46:53;;;;;;;12.80;8.37;;;;;;;-141.97;56.98;47649.78;5056070;28;20174;-83
2023/05/06 05:49:19;;;;;;;13.87;8.40;;;;;;;-141.97;56.51;47720.91;5038194;28;20165;-83
2023/05/06 05:51:44;;;;;;;12.20;7.83;;;;;;;-141.97;56.24;47609.41;5055971;28;20169;-82
2023/05/06 05:54:09;;;;;;;14.33;8.97;;;;;;;-141.97;56.94;47613.25;5037534;28;20185;-82
2023/05/06 05:56:35;;;;;;;22.70;12.03;;;;;;;-141.97;55.91;47697.84;5054505;28;20205;-83
2023/05/06 05:59:00;;;;;;;17.53;8.27;;;;;;;-141.97;55.82;47780.47;5055962;28;20162;-83
2023/05/06 06:01:26;;;;;;;10.80;7.53;;;;;;;-141.97;55.96;47642.09;5056388;28;20737;-83
2023/05/06 06:03:52;;;;;;;14.27;7.97;;;;;;;-141.97;55.55;47686.31;5055843;28;20602;-84
2023/05/06 06:06:18;;;;;;;12.33;8.13;;;;;;;-141.97;55.77;47797.78;5037698;28;20522;-83
2023/05/06 06:08:44;;;;;;;12.13;8.03;;;;;;;-141.97;54.89;47597.88;5055605;28;20168;-83
2023/05/06 06:11:10;;;;;;;12.70;8.20;;;;;;;-141.97;54.15;47574.81;5055047;28;20187;-83
2023/05/06 06:13:35;;;;;;;11.80;7.50;;;;;;;-141.97;54.71;47645.94;5055192;28;20246;-84
2023/05/06 06:16:00;;;;;;;12.33;7.60;;;;;;;-141.97;54.29;47613.25;5055130;28;20214;-82
2023/05/06 06:18:26;;;;;;;13.10;8.40;;;;;;;-141.97;54.19;47557.53;5054937;28;20162;-83
2023/05/06 06:20:51;;;;;;;11.90;7.90;;;;;;;-141.97;53.81;47599.81;5036513;28;20177;-82
2023/05/06 06:23:17;;;;;;;12.77;7.87;;;;;;;-141.97;54.34;47561.38;5036777;28;20982;-84
2023/05/06 06:25:42;;;;;;;17.97;11.17;;;;;;;-141.97;53.90;47707.44;5037303;28;20180;-83
2023/05/06 06:28:08;;;;;;;17.70;12.10;;;;;;;-141.97;54.51;47736.28;5055276;28;20544;-83
2023/05/06 06:30:34;;;;;;;13.57;8.60;;;;;;;-141.97;52.54;47763.19;5053746;28;20161;-83
2023/05/06 06:33:00;;;;;;;12.17;8.33;;;;;;;-141.97;52.54;47642.09;5036615;28;20246;-83
2023/05/06 06:35:26;;;;;;;12.27;6.47;;;;;;;-141.97;52.51;47690.16;5054511;28;20178;-84
2023/05/06 06:37:53;;;;;;;11.50;6.70;;;;;;;-141.97;52.74;47834.31;5054979;28;20244;-82
2023/05/06 06:40:18;;;;;;;10.40;7.17;;;;;;;-141.97;51.45;47632.47;5055384;28;20177;-83
2023/05/06 06:42:45;;;;;;;10.47;6.63;;;;;;;-141.97;50.61;47678.63;5057186;28;20219;-83
2023/05/06 06:45:13;;;;;;;10.70;7.20;;;;;;;-141.97;50.32;47692.06;5057160;28;20153;-84
2023/05/06 06:47:38;;;;;;;11.13;6.30;;;;;;;-141.97;49.14;47678.63;5037573;28;20555;-83
2023/05/06 06:50:04;;;;;;;9.63;6.67;;;;;;;-141.97;49.48;47665.16;5053212;28;20176;-83
2023/05/06 06:52:30;;;;;;;10.80;6.13;;;;;;;-141.97;48.74;47678.63;5036801;28;20204;-83
2023/05/06 06:54:55;;;;;;;11.13;7.00;;;;;;;-141.97;49.42;47578.66;5054983;28;20169;-85
2023/05/06 06:57:20;;;;;;;9.50;6.80;;;;;;;-141.97;48.79;47588.28;5053526;28;20170;-82
2023/05/06 06:59:47;;;;;;;13.30;7.67;;;;;;;-141.97;48.14;47768.94;5036694;28;20268;-83
2023/05/06 07:02:13;;;;;;;10.53;7.10;;;;;;;-141.97;49.01;47649.78;5036768;28;20166;-83
2023/05/06 07:04:39;;;;;;;15.80;9.80;;;;;;;-141.97;49.31;47757.41;5035909;28;20235;-83
2023/05/06 07:07:04;;;;;;;11.80;7.83;;;;;;;-141.97;47.75;47453.72;5036587;28;20239;-83
2023/05/06 07:09:29;;;;;;;21.33;14.33;;;;;;;-141.97;47.80;47680.53;5054481;28;20241;-83
2023/05/06 07:11:55;;;;;;;15.17;9.73;;;;;;;-141.97;46.50;47809.31;5036940;28;20201;-82
2023/05/06 07:14:20;;;;;;;10.83;7.30;;;;;;;-141.97;47.26;47647.84;5055715;28;20234;-85
2023/05/06 07:16:46;;;;;;;10.97;6.93;;;;;;;-141.97;47.43;47645.94;5052690;28;20181;-83
2023/05/06 07:19:11;;;;;;;9.50;6.50;;;;;;;-141.97;46.36;47811.25;5054353;28;20600;-83
2023/05/06 07:21:37;;;;;;;11.00;7.07;;;;;;;-141.97;46.11;47674.78;5053876;28;20169;-83
2023/05/06 07:24:02;;;;;;;10.90;7.50;;;;;;;-141.97;46.59;47694.00;5036607;28;20610;-84
2023/05/06 07:26:27;;;;;;;9.07;6.63;;;;;;;-141.97;45.38;47499.84;5054330;28;20165;-82
2023/05/06 07:28:53;;;;;;;8.77;6.60;;;;;;;-141.97;44.50;47611.34;5036987;28;20233;-82
2023/05/06 07:31:19;;;;;;;8.07;6.00;;;;;;;-141.97;43.92;47682.47;5055012;28;20596;-84
2023/05/06 07:33:48;;;;;;;9.87;6.60;;;;;;;-141.97;43.93;47611.34;5055155;28;20193;-84
2023/05/06 07:36:13;;;;;;;10.93;6.90;;;;;;;-141.97;42.83;47653.63;5056738;28;20141;-85
2023/05/06 07:38:39;;;;;;;10.77;5.90;;;;;;;-141.97;40.38;47709.38;5037464;28;20225;-83
2023/05/06 07:41:05;;;;;;;9.13;5.97;;;;;;;-141.97;40.17;47755.50;5056929;28;20341;-84
2023/05/06 07:43:30;;;;;;;7.73;5.83;;;;;;;-141.97;39.16;47507.53;5055271;28;20230;-85
2023/05/06 07:46:01;;;;;;;7.63;5.37;;;;;;;-141.97;39.45;47440.28;5032976;28;20192;-83
2023/05/06 07:48:27;;;;;;;7.80;5.20;;;;;;;-141.97;38.41;47669.00;5054860;28;20169;-83
2023/05/06 07:50:53;;;;;;;10.50;5.87;;;;;;;-141.97;38.16;47417.22;5056027;28;20226;-84
2023/05/06 07:53:18;;;;;;;12.27;6.13;;;;;;;-141.97;37.96;47767.03;5052691;28;20185;-84
2023/05/06 07:55:44;;;;;;;7.07;5.47;;;;;;;-141.97;38.60;47532.53;5052286;28;20654;-85
2023/05/06 07:58:10;;;;;;;8.13;5.73;;;;;;;-141.97;39.12;47776.63;5035718;28;20681;-83
2023/05/06 08:00:35;;;;;;;7.80;5.80;;;;;;;-141.97;38.74;47707.44;5035572;28;20172;-83
2023/05/06 08:03:01;;;;;;;7.87;5.60;;;;;;;-141.97;38.44;47478.72;5053028;28;20165;-83
2023/05/06 08:05:26;;;;;;;7.33;5.23;;;;;;;-141.97;38.12;47688.22;5054376;28;20153;-83
2023/05/06 08:07:52;;;;;;;7.20;5.23;;;;;;;-141.97;37.62;47603.66;5055672;28;20181;-84
2023/05/06 08:10:18;;;;;;;7.23;5.77;;;;;;;-141.97;37.77;47401.84;5035753;28;20173;-86
2023/05/06 08:12:44;;;;;;;9.63;5.73;;;;;;;-141.97;37.21;47513.31;5035394;28;20196;-86
2023/05/06 08:15:10;;;;;;;10.83;6.10;;;;;;;-141.97;36.80;47453.72;5054981;28;20169;-87
2023/05/06 08:17:35;;;;;;;9.03;5.43;;;;;;;-141.97;36.21;47599.81;5053895;28;20170;-87
2023/05/06 08:20:01;;;;;;;8.47;5.97;;;;;;;-141.97;35.79;47622.88;5063346;28;20218;-85
2023/05/06 08:22:27;;;;;;;8.50;5.83;;;;;;;-141.97;35.54;47407.59;5049647;28;20165;-86
2023/05/06 08:24:53;;;;;;;6.60;5.20;;;;;;;-141.97;35.11;47417.22;5062337;28;20164;-85
2023/05/06 08:27:18;;;;;;;7.93;5.80;;;;;;;-141.97;34.42;47561.38;5066945;28;20153;-84
2023/05/06 08:29:44;;;;;;;9.13;6.60;;;;;;;-141.97;34.33;47768.94;5074936;28;20192;-86
2023/05/06 08:32:10;;;;;;;9.10;5.30;;;;;;;-141.97;35.77;47465.25;5060481;28;20173;-86
2023/05/06 08:34:35;;;;;;;8.80;5.57;;;;;;;-141.97;35.34;47499.84;5067843;28;20173;-87
2023/05/06 08:37:01;;;;;;;13.00;5.40;;;;;;;-141.97;34.99;47361.47;5048558;28;20211;-85
2023/05/06 08:39:27;;;;;;;7.43;5.37;;;;;;;-141.97;34.58;47540.22;5048422;28;20237;-89
2023/05/06 08:41:55;;;;;;;9.97;5.50;;;;;;;-141.97;34.85;47692.06;5060634;28;20211;-83
2023/05/06 08:44:23;;;;;;;8.03;5.60;;;;;;;-141.97;35.71;47595.97;5041649;28;20211;-85
2023/05/06 08:46:49;;;;;;;8.00;5.70;;;;;;;-141.97;35.50;47299.97;5055540;28;20170;-86
2023/05/06 08:49:15;;;;;;;8.37;5.47;;;;;;;-141.97;34.76;47655.53;5036746;28;20239;-84
2023/05/06 08:51:43;;;;;;;10.60;5.90;;;;;;;-141.97;34.82;47803.56;5054217;28;20514;-85
2023/05/06 08:54:10;;;;;;;8.20;5.17;;;;;;;-141.97;34.27;47576.75;5057362;28;20220;-86
2023/05/06 08:56:37;;;;;;;7.60;5.25;;;;;;;-141.97;33.84;47507.53;5041703;28;20173;-84
2023/05/06 08:59:03;;;;;;;7.90;4.97;;;;;;;-141.97;33.72;47701.69;5058014;28;20183;-85
2023/05/06 09:01:28;;;;;;;7.82;5.50;;;;;;;-141.97;33.88;47707.44;5057128;28;20721;-84
2023/05/06 09:03:55;;;;;;;8.70;5.47;;;;;;;-141.97;33.89;47743.97;5057379;28;20164;-85
2023/05/06 09:06:22;;;;;;;6.80;5.57;;;;;;;-141.97;33.75;47557.53;5038746;28;20496;-85
2023/05/06 09:08:47;;;;;;;7.28;5.47;;;;;;;-141.97;33.52;47649.78;5038900;28;20263;-84
2023/05/06 09:11:21;;;;;;;7.88;5.35;;;;;;;-141.97;32.86;47557.53;5038475;28;20736;-86
2023/05/06 09:13:47;;;;;;;7.10;5.43;;;;;;;-141.97;33.50;47657.47;5038434;28;20230;-85
2023/05/06 09:16:29;;;;;;;8.60;5.60;;;;;;;-141.97;33.92;47547.91;5038446;28;20267;-84
2023/05/06 09:18:55;;;;;;;8.13;5.47;;;;;;;-141.97;34.10;47509.47;5055228;28;20172;-84
2023/05/06 09:21:28;;;;;;;9.23;5.15;;;;;;;-141.97;33.50;47469.09;5055787;28;20252;-84
2023/05/06 09:23:53;;;;;;;8.20;5.35;;;;;;;-141.97;33.85;47480.63;5055329;28;20160;-85
2023/05/06 09:26:21;;;;;;;11.40;5.45;;;;;;;-141.97;34.09;47380.69;5038692;28;20175;-84
2023/05/06 09:28:47;;;;;;;6.35;5.03;;;;;;;-141.97;33.16;47745.88;5056561;28;20544;-85
2023/05/06 09:31:16;;;;;;;6.97;5.85;;;;;;;-141.97;33.07;47569.06;5056186;28;20222;-85
2023/05/06 09:33:41;;;;;;;10.18;5.15;;;;;;;-141.97;33.44;47561.38;5038649;28;20282;-85
2023/05/06 09:36:07;;;;;;;7.22;5.07;;;;;;;-141.97;33.61;47595.97;5038783;28;20179;-86
2023/05/06 09:38:32;;;;;;;10.18;6.00;;;;;;;-141.97;34.34;47649.78;5038675;28;20261;-84
2023/05/06 09:40:58;;;;;;;12.07;6.60;;;;;;;-141.97;34.36;47551.75;5042354;28;20594;-85
2023/05/06 09:43:23;;;;;;;7.30;6.13;;;;;;;-141.97;34.76;47544.06;5063953;28;20168;-85
2023/05/06 09:45:50;;;;;;;9.48;6.40;;;;;;;-141.97;34.69;47711.28;5041142;28;20166;-86
2023/05/06 09:48:15;;;;;;;7.95;5.72;;;;;;;-141.97;34.53;47434.50;5044510;28;20335;-85
2023/05/06 09:50:43;;;;;;;8.40;5.25;;;;;;;-141.97;33.97;47546.00;5039836;28;20561;-85
2023/05/06 09:53:10;;;;;;;6.97;5.07;;;;;;;-141.97;33.94;47561.38;5058998;28;20680;-86
2023/05/06 09:55:36;;;;;;;10.30;6.40;;;;;;;-141.97;34.43;47688.22;5057639;28;20169;-86
2023/05/06 09:58:04;;;;;;;9.82;5.85;;;;;;;-141.97;34.54;47530.59;5041937;28;20166;-84
2023/05/06 10:00:30;;;;;;;10.65;5.65;;;;;;;-141.97;33.95;47413.38;5057423;28;20642;-85
2023/05/06 10:02:57;;;;;;;8.27;5.85;;;;;;;-141.97;33.55;47213.50;5038413;28;20201;-84
2023/05/06 10:05:25;;;;;;;8.18;5.70;;;;;;;-141.97;33.35;47278.84;5057676;28;20170;-86
2023/05/06 10:07:52;;;;;;;9.10;5.47;;;;;;;-141.97;33.40;47499.84;5040494;28;20260;-84
2023/05/06 10:10:17;;;;;;;8.57;5.47;;;;;;;-141.97;33.81;47446.03;5037415;28;20174;-85
2023/05/06 10:12:44;;;;;;;7.15;5.50;;;;;;;-141.97;34.12;47453.72;5061430;28;20237;-86
2023/05/06 10:15:11;;;;;;;8.43;5.40;;;;;;;-141.97;34.56;47572.91;5129464;23;20250;-89
2023/05/06 10:17:40;;;;;;;10.30;7.95;;;;;;;-141.97;34.55;47505.63;5038111;28;20654;-86
2023/05/06 10:20:08;;;;;;;7.90;5.90;;;;;;;-141.97;34.07;47630.56;5037596;28;20181;-84
2023/05/06 10:22:52;;;;;;;7.47;5.63;;;;;;;-141.97;33.92;47715.13;5037185;28;20759;-84
2023/05/06 10:25:38;;;;;;;5.80;4.88;;;;;;;-141.97;33.35;47505.63;5051049;28;20238;-85
2023/05/06 10:28:10;;;;;;;8.40;5.65;;;;;;;-141.97;33.84;47376.84;5056617;28;20189;-84
2023/05/06 10:30:38;;;;;;;5.50;4.80;;;;;;;-141.97;33.15;47549.84;5054000;28;20245;-84
2023/05/06 10:33:08;;;;;;;8.65;5.35;;;;;;;-141.97;33.45;47557.53;5055005;28;20192;-84
2023/05/06 10:35:40;;;;;;;8.10;5.30;;;;;;;-141.97;33.67;47561.38;5036931;28;20169;-84
2023/05/06 10:38:10;;;;;;;6.55;5.60;;;;;;;-141.97;34.31;47565.22;5054355;28;20226;-84
2023/05/06 10:40:36;;;;;;;7.55;5.47;;;;;;;-141.97;33.56;47515.22;5037253;28;20173;-85
2023/05/06 10:43:24;;;;;;;6.13;5.22;;;;;;;-141.97;33.55;47567.13;5037065;28;20196;-84
2023/05/06 10:46:07;;;;;;;8.10;5.03;;;;;;;-141.97;33.66;47559.44;5054345;28;20168;-84
2023/05/06 10:48:34;;;;;;;5.85;4.55;;;;;;;-141.97;33.82;47476.78;5044604;28;20664;-85
2023/05/06 10:51:15;;;;;;;7.55;5.13;;;;;;;-141.97;33.78;47551.75;5035466;28;20641;-85
2023/05/06 10:54:01;;;;;;;8.00;4.90;;;;;;;-141.97;33.59;47547.91;5034539;28;20224;-85
2023/05/06 10:56:28;;;;;;;6.47;4.90;;;;;;;-141.97;33.97;47546.00;5016710;28;20233;-85
2023/05/06 10:58:54;;;;;;;6.95;4.90;;;;;;;-141.97;34.01;47786.25;5034524;28;20235;-86
2023/05/06 11:01:29;;;;;;;9.50;5.82;;;;;;;-141.97;34.61;47749.72;5033755;28;20573;-85
2023/05/06 11:03:55;;;;;;;8.38;4.90;;;;;;;-141.97;34.80;47557.53;5015770;28;20175;-84
2023/05/06 11:06:35;;;;;;;7.75;4.88;;;;;;;-141.97;35.20;47569.06;5034631;28;20694;-85
2023/05/06 11:09:03;;;;;;;10.17;5.43;;;;;;;-141.97;35.04;47722.81;5036110;28;20585;-85